createdAt,value
2018-11-14T00:02:02.635Z,102362.95
2018-11-14T00:04:31.913Z,102367.03
2018-11-14T00:07:01.010Z,102363.08
2018-11-14T00:09:45.308Z,102371.22
2018-11-14T00:12:14.369Z,102377.53
2018-11-14T00:14:43.628Z,102380.42
2018-11-14T00:17:13.389Z,102376.07
2018-11-14T00:19:42.684Z,102378.80
2018-11-14T00:22:11.954Z,102385.19
2018-11-14T00:24:41.552Z,102390.69
2018-11-14T00:27:10.998Z,102386.82
2018-11-14T00:29:40.938Z,102389.51
2018-11-14T00:32:09.774Z,102393.54
2018-11-14T00:34:39.049Z,102391.87
2018-11-14T00:37:08.550Z,102395.08
2018-11-14T00:39:38.033Z,102388.45
2018-11-14T00:42:07.582Z,102389.83
2018-11-14T00:44:36.863Z,102396.55
2018-11-14T00:47:05.799Z,102403.27
2018-11-14T00:49:35.070Z,102403.22
2018-11-14T00:52:04.047Z,102397.36
2018-11-14T00:54:33.891Z,102405.91
2018-11-14T00:57:02.833Z,102399.23
2018-11-14T00:59:32.114Z,102402.45
2018-11-14T01:02:02.781Z,102398.42
2018-11-14T01:04:31.999Z,102392.67
2018-11-14T01:07:01.609Z,102405.30
2018-11-14T01:09:31.346Z,102408.10
2018-11-14T01:12:00.761Z,102408.59
2018-11-14T01:14:30.215Z,102411.39
2018-11-14T01:16:59.331Z,102409.93
2018-11-14T01:19:29.521Z,102410.34
2018-11-14T01:21:58.957Z,102405.09
2018-11-14T01:24:28.227Z,102409.19
2018-11-14T01:26:58.045Z,102403.13
2018-11-14T01:29:27.758Z,102407.23
2018-11-14T01:31:57.033Z,102402.39
2018-11-14T01:34:26.354Z,102399.86
2018-11-14T01:36:55.679Z,102401.73
2018-11-14T01:39:25.234Z,102402.73
2018-11-14T01:41:54.789Z,102404.53
2018-11-14T01:44:24.070Z,102397.41
2018-11-14T01:46:53.360Z,102399.31
2018-11-14T01:49:22.679Z,102393.20
2018-11-14T01:51:51.966Z,102394.59
2018-11-14T01:54:21.810Z,102408.50
2018-11-14T01:56:51.074Z,102405.41
2018-11-14T01:59:20.646Z,102411.70
2018-11-14T02:01:49.927Z,102410.36
2018-11-14T02:04:20.246Z,102408.16
2018-11-14T02:06:49.806Z,102409.21
2018-11-14T02:09:20.264Z,102408.88
2018-11-14T02:11:49.537Z,102410.67
2018-11-14T02:14:20.090Z,102414.36
2018-11-14T02:16:49.355Z,102414.92
2018-11-14T02:19:19.638Z,102414.52
2018-11-14T02:21:48.966Z,102417.23
2018-11-14T02:24:18.222Z,102414.62
2018-11-14T02:26:47.485Z,102408.41
2018-11-14T02:29:17.058Z,102413.36
2018-11-14T02:31:46.534Z,102412.02
2018-11-14T02:34:16.058Z,102406.58
2018-11-14T02:36:45.437Z,102402.73
2018-11-14T02:39:14.698Z,102407.29
2018-11-14T02:41:44.179Z,102399.84
2018-11-14T02:44:14.189Z,102410.23
2018-11-14T02:46:43.173Z,102411.69
2018-11-14T02:49:12.910Z,102402.89
2018-11-14T02:51:42.190Z,102411.50
2018-11-14T02:54:11.457Z,102409.94
2018-11-14T02:56:40.741Z,102411.45
2018-11-14T02:59:10.197Z,102404.34
2018-11-14T03:01:39.474Z,102404.00
2018-11-14T03:04:09.317Z,102402.77
2018-11-14T03:06:38.591Z,102411.30
2018-11-14T03:09:07.625Z,102408.73
2018-11-14T03:11:37.210Z,102405.12
2018-11-14T03:14:05.694Z,102406.53
2018-11-14T03:16:35.262Z,102396.39
2018-11-14T03:19:04.058Z,102404.03
2018-11-14T03:21:33.614Z,102399.08
2018-11-14T03:24:03.182Z,102392.82
2018-11-14T03:26:32.422Z,102396.92
2018-11-14T03:29:01.981Z,102395.23
2018-11-14T03:31:31.749Z,102396.58
2018-11-14T03:34:01.001Z,102399.26
2018-11-14T03:36:30.141Z,102399.63
2018-11-14T03:38:59.422Z,102404.03
2018-11-14T03:41:28.697Z,102404.96
2018-11-14T03:43:58.137Z,102409.40
2018-11-14T03:46:27.430Z,102410.25
2018-11-14T03:48:56.701Z,102409.44
2018-11-14T03:51:26.137Z,102403.73
2018-11-14T03:53:55.401Z,102398.95
2018-11-14T03:56:24.682Z,102393.77
2018-11-14T03:58:54.246Z,102401.55
2018-11-14T04:01:23.533Z,102402.14
2018-11-14T04:03:52.799Z,102399.56
2018-11-14T04:06:22.451Z,102400.50
2018-11-14T04:08:52.202Z,102400.50
2018-11-14T04:11:21.615Z,102394.31
2018-11-14T04:13:51.602Z,102394.48
2018-11-14T04:16:21.170Z,102400.74
2018-11-14T04:18:50.437Z,102397.65
2018-11-14T04:21:20.572Z,102391.39
2018-11-14T04:23:49.610Z,102394.11
2018-11-14T04:26:20.242Z,102398.20
2018-11-14T04:28:50.490Z,102395.59
2018-11-14T04:31:20.654Z,102383.22
2018-11-14T04:33:49.971Z,102385.63
2018-11-14T04:36:20.642Z,102383.05
2018-11-14T04:38:49.918Z,102383.05
2018-11-14T04:41:20.658Z,102379.97
2018-11-14T04:43:49.943Z,102379.48
2018-11-14T04:46:20.682Z,102372.41
2018-11-14T04:48:50.308Z,102373.37
2018-11-14T04:51:20.758Z,102368.97
2018-11-14T04:53:50.321Z,102365.81
2018-11-14T04:56:20.798Z,102369.90
2018-11-14T04:58:50.337Z,102370.23
2018-11-14T05:01:20.786Z,102375.84
2018-11-14T05:03:50.360Z,102372.61
2018-11-14T05:06:20.775Z,102374.91
2018-11-14T05:08:50.042Z,102368.55
2018-11-14T05:11:20.913Z,102368.96
2018-11-14T05:13:50.545Z,102374.77
2018-11-14T05:16:20.743Z,102383.22
2018-11-14T05:18:50.319Z,102393.36
2018-11-14T05:21:20.765Z,102381.02
2018-11-14T05:23:50.045Z,102389.23
2018-11-14T05:26:20.441Z,102388.41
2018-11-14T05:28:49.725Z,102389.00
2018-11-14T05:31:19.005Z,102388.10
2018-11-14T05:33:48.426Z,102387.72
2018-11-14T05:36:17.750Z,102388.69
2018-11-14T05:38:47.016Z,102386.97
2018-11-14T05:41:16.565Z,102385.63
2018-11-14T05:43:45.849Z,102384.33
2018-11-14T05:46:15.419Z,102379.48
2018-11-14T05:48:44.893Z,102381.38
2018-11-14T05:51:13.942Z,102380.96
2018-11-14T05:53:43.225Z,102389.45
2018-11-14T05:56:12.933Z,102391.34
2018-11-14T05:58:42.266Z,102383.41
2018-11-14T06:01:11.539Z,102378.45
2018-11-14T06:03:41.007Z,102378.91
2018-11-14T06:06:10.358Z,102390.03
2018-11-14T06:08:39.693Z,102391.38
2018-11-14T06:11:08.962Z,102384.64
2018-11-14T06:13:38.195Z,102391.75
2018-11-14T06:16:07.558Z,102390.86
2018-11-14T06:18:36.830Z,102399.37
2018-11-14T06:21:05.782Z,102402.58
2018-11-14T06:23:35.114Z,102410.13
2018-11-14T06:26:17.199Z,102402.92
2018-11-14T06:28:53.998Z,102407.42
2018-11-14T06:31:23.566Z,102408.34
2018-11-14T06:33:52.527Z,102411.95
2018-11-14T06:36:22.098Z,102407.52
2018-11-14T06:38:51.957Z,102410.61
2018-11-14T06:41:21.479Z,102408.45
2018-11-14T06:43:50.741Z,102416.08
2018-11-14T06:46:21.005Z,102418.34
2018-11-14T06:48:50.665Z,102420.61
2018-11-14T06:51:21.034Z,102427.86
2018-11-14T06:53:50.297Z,102429.23
2018-11-14T06:56:20.794Z,102415.48
2018-11-14T06:58:50.152Z,102414.15
2018-11-14T07:01:21.149Z,102390.67
2018-11-14T07:03:51.006Z,102421.77
2018-11-14T07:06:21.034Z,102415.97
2018-11-14T07:08:50.309Z,102416.48
2018-11-14T07:11:21.171Z,102419.67
2018-11-14T07:13:50.757Z,102416.23
2018-11-14T07:16:21.098Z,102419.16
2018-11-14T07:18:50.702Z,102424.45
2018-11-14T07:21:21.249Z,102429.78
2018-11-14T07:23:50.890Z,102434.14
2018-11-14T07:26:21.190Z,102430.88
2018-11-14T07:28:51.439Z,102421.91
2018-11-14T07:31:20.847Z,102430.47
2018-11-14T07:33:50.387Z,102425.84
2018-11-14T07:36:21.144Z,102423.43
2018-11-14T07:38:50.947Z,102432.23
2018-11-14T07:41:21.046Z,102438.86
2018-11-14T07:43:50.306Z,102445.91
2018-11-14T07:46:21.170Z,102448.34
2018-11-14T07:48:50.793Z,102455.94
2018-11-14T07:51:21.166Z,102457.12
2018-11-14T07:53:50.991Z,102455.55
2018-11-14T07:56:21.169Z,102442.31
2018-11-14T07:58:49.880Z,102449.41
2018-11-14T08:01:19.008Z,102445.24
2018-11-14T08:03:48.274Z,102436.05
2018-11-14T08:06:17.627Z,102429.22
2018-11-14T08:08:47.013Z,102429.52
2018-11-14T08:11:16.045Z,102436.80
2018-11-14T08:13:45.319Z,102439.55
2018-11-14T08:16:14.991Z,102439.51
2018-11-14T08:18:44.254Z,102434.88
2018-11-14T08:21:13.672Z,102433.87
2018-11-14T08:23:43.169Z,102437.62
2018-11-14T08:26:12.440Z,102433.00
2018-11-14T08:28:41.649Z,102439.66
2018-11-14T08:31:11.197Z,102440.09
2018-11-14T08:33:40.205Z,102442.98
2018-11-14T08:36:09.481Z,102441.55
2018-11-14T08:38:39.417Z,102438.36
2018-11-14T08:41:09.043Z,102438.93
2018-11-14T08:43:38.312Z,102444.60
2018-11-14T08:46:07.929Z,102446.64
2018-11-14T08:48:37.197Z,102449.58
2018-11-14T08:51:06.686Z,102450.86
2018-11-14T08:53:36.306Z,102469.71
2018-11-14T08:56:05.285Z,102463.68
2018-11-14T08:58:34.343Z,102465.30
2018-11-14T09:01:03.605Z,102463.80
2018-11-14T09:03:32.868Z,102465.48
2018-11-14T09:06:02.477Z,102467.94
2018-11-14T09:08:32.230Z,102466.72
2018-11-14T09:11:01.532Z,102469.66
2018-11-14T09:13:31.179Z,102473.58
2018-11-14T09:16:00.402Z,102474.70
2018-11-14T09:18:29.398Z,102484.50
2018-11-14T09:20:59.101Z,102479.06
2018-11-14T09:23:28.157Z,102476.80
2018-11-14T09:25:57.422Z,102473.67
2018-11-14T09:28:27.530Z,102465.87
2018-11-14T09:30:57.049Z,102467.03
2018-11-14T09:33:26.602Z,102470.10
2018-11-14T09:35:56.165Z,102462.70
2018-11-14T09:38:25.434Z,102457.28
2018-11-14T09:40:55.020Z,102459.98
2018-11-14T09:43:24.466Z,102466.34
2018-11-14T09:45:54.051Z,102468.02
2018-11-14T09:48:23.319Z,102467.72
2018-11-14T09:50:53.082Z,102463.40
2018-11-14T09:53:22.475Z,102461.27
2018-11-14T09:55:51.890Z,102469.28
2018-11-14T09:58:21.510Z,102464.47
2018-11-14T10:00:50.810Z,102475.33
2018-11-14T10:03:21.398Z,102479.35
2018-11-14T10:05:51.440Z,102482.41
2018-11-14T10:08:21.492Z,102481.22
2018-11-14T10:10:51.056Z,102478.03
2018-11-14T10:13:21.448Z,102487.13
2018-11-14T10:15:50.460Z,102485.50
2018-11-14T10:18:21.404Z,102478.77
2018-11-14T10:20:51.182Z,102484.77
2018-11-14T10:23:21.594Z,102478.94
2018-11-14T10:25:50.851Z,102481.53
2018-11-14T10:28:21.475Z,102474.63
2018-11-14T10:30:54.120Z,102474.01
2018-11-14T10:33:23.258Z,102475.62
2018-11-14T10:35:52.534Z,102469.91
2018-11-14T10:38:21.802Z,102459.23
2018-11-14T10:40:51.374Z,102462.03
2018-11-14T10:43:21.533Z,102455.10
2018-11-14T10:45:51.346Z,102452.63
2018-11-14T10:48:21.498Z,102450.13
2018-11-14T10:50:50.827Z,102443.08
2018-11-14T10:53:21.963Z,102441.41
2018-11-14T10:55:51.286Z,102435.33
2018-11-14T10:58:21.165Z,102438.02
2018-11-14T11:00:50.722Z,102431.25
2018-11-14T11:03:20.918Z,102426.81
2018-11-14T11:05:50.094Z,102422.85
2018-11-14T11:08:23.197Z,102427.94
2018-11-14T11:10:52.605Z,102423.06
2018-11-14T11:13:21.933Z,102425.94
2018-11-14T11:15:50.874Z,102431.50
2018-11-14T11:18:19.543Z,102414.65
2018-11-14T11:20:49.569Z,102414.89
2018-11-14T11:23:18.828Z,102416.97
2018-11-14T11:25:49.198Z,102412.22
2018-11-14T11:28:18.235Z,102401.41
2018-11-14T11:30:47.573Z,102398.45
2018-11-14T11:33:16.640Z,102386.92
2018-11-14T11:35:45.565Z,102389.91
2018-11-14T11:38:14.591Z,102392.67
2018-11-14T11:40:43.991Z,102395.02
2018-11-14T11:43:13.461Z,102386.95
2018-11-14T11:45:42.723Z,102390.55
2018-11-14T11:48:11.138Z,102387.81
2018-11-14T11:50:40.445Z,102387.76
2018-11-14T11:53:10.698Z,102396.16
2018-11-14T11:55:39.972Z,102384.22
2018-11-14T11:58:09.415Z,102383.16
2018-11-14T12:00:38.899Z,102388.77
2018-11-14T12:03:08.495Z,102390.22
2018-11-14T12:05:37.823Z,102394.98
2018-11-14T12:08:06.962Z,102391.38
2018-11-14T12:10:36.624Z,102389.20
2018-11-14T12:13:06.130Z,102381.27
2018-11-14T12:15:35.850Z,102384.26
2018-11-14T12:18:05.003Z,102389.60
2018-11-14T12:20:34.454Z,102382.03
2018-11-14T12:23:03.710Z,102388.47
2018-11-14T12:25:33.003Z,102383.48
2018-11-14T12:28:02.461Z,102384.14
2018-11-14T12:30:31.749Z,102380.31
2018-11-14T12:33:01.722Z,102384.28
2018-11-14T12:35:31.048Z,102391.46
2018-11-14T12:38:00.482Z,102379.41
2018-11-14T12:40:29.758Z,102388.78
2018-11-14T12:42:59.017Z,102392.85
2018-11-14T12:45:28.369Z,102393.16
2018-11-14T12:47:57.644Z,102376.15
2018-11-14T12:50:26.917Z,102370.97
2018-11-14T12:52:56.488Z,102371.86
2018-11-14T12:55:25.773Z,102361.58
2018-11-14T12:57:55.337Z,102350.11
2018-11-14T13:00:25.042Z,102357.98
2018-11-14T13:02:54.590Z,102359.35
2018-11-14T13:05:24.067Z,102354.78
2018-11-14T13:07:53.261Z,102354.88
2018-11-14T13:10:22.812Z,102352.62
2018-11-14T13:12:52.374Z,102357.84
2018-11-14T13:15:22.082Z,102355.86
2018-11-14T13:17:59.863Z,102357.37
2018-11-14T13:20:29.128Z,102352.86
2018-11-14T13:22:58.721Z,102353.73
2018-11-14T13:25:28.002Z,102352.14
2018-11-14T13:27:57.544Z,102359.59
2018-11-14T13:30:27.005Z,102356.52
2018-11-14T13:32:56.701Z,102353.90
2018-11-14T13:35:25.967Z,102348.30
2018-11-14T13:37:55.531Z,102341.47
2018-11-14T13:40:24.850Z,102343.91
2018-11-14T13:42:54.126Z,102341.55
2018-11-14T13:45:23.691Z,102341.86
2018-11-14T13:47:52.962Z,102335.84
2018-11-14T13:50:22.404Z,102329.36
2018-11-14T13:52:51.750Z,102329.99
2018-11-14T13:55:21.908Z,102328.37
2018-11-14T13:57:51.171Z,102329.59
2018-11-14T14:00:21.582Z,102327.20
2018-11-14T14:02:50.633Z,102320.13
2018-11-14T14:05:20.086Z,102325.21
2018-11-14T14:07:49.642Z,102323.45
2018-11-14T14:10:18.350Z,102323.83
2018-11-14T14:12:47.478Z,102330.03
2018-11-14T14:15:16.582Z,102324.45
2018-11-14T14:17:45.813Z,102327.91
2018-11-14T14:20:15.095Z,102331.87
2018-11-14T14:22:44.282Z,102339.91
2018-11-14T14:25:13.930Z,102334.36
2018-11-14T14:27:43.190Z,102335.72
2018-11-14T14:30:12.170Z,102327.56
2018-11-14T14:32:41.823Z,102327.07
2018-11-14T14:35:11.046Z,102325.13
2018-11-14T14:37:40.303Z,102317.05
2018-11-14T14:40:09.197Z,102322.36
2018-11-14T14:42:39.249Z,102322.45
2018-11-14T14:45:08.289Z,102321.36
2018-11-14T14:47:38.198Z,102335.04
2018-11-14T14:50:06.910Z,102334.81
2018-11-14T14:52:36.717Z,102336.10
2018-11-14T14:55:05.448Z,102333.05
2018-11-14T14:57:35.555Z,102339.41
2018-11-14T15:00:05.482Z,102338.77
2018-11-14T15:02:35.054Z,102332.73
2018-11-14T15:05:04.430Z,102326.27
2018-11-14T15:07:34.299Z,102332.26
2018-11-14T15:10:03.222Z,102328.78
2018-11-14T15:12:32.151Z,102327.88
2018-11-14T15:15:01.197Z,102327.23
2018-11-14T15:17:30.232Z,102319.80
2018-11-14T15:19:59.790Z,102325.94
2018-11-14T15:22:29.568Z,102327.12
2018-11-14T15:24:59.105Z,102330.75
2018-11-14T15:27:28.379Z,102328.22
2018-11-14T15:29:58.151Z,102330.62
2018-11-14T15:32:40.159Z,102328.16
2018-11-14T15:35:20.994Z,102322.20
2018-11-14T15:38:02.706Z,102321.61
2018-11-14T15:40:44.381Z,102321.80
2018-11-14T15:43:23.665Z,102319.03
2018-11-14T15:45:52.999Z,102307.88
2018-11-14T15:48:22.382Z,102308.66
2018-11-14T15:50:51.641Z,102304.94
2018-11-14T15:53:22.262Z,102301.23
2018-11-14T15:55:51.514Z,102306.13
2018-11-14T15:58:22.179Z,102297.16
2018-11-14T16:00:51.129Z,102297.46
2018-11-14T16:03:20.442Z,102289.24
2018-11-14T16:05:49.772Z,102291.94
2018-11-14T16:08:19.279Z,102285.48
2018-11-14T16:10:48.307Z,102279.59
2018-11-14T16:13:17.581Z,102276.80
2018-11-14T16:15:46.806Z,102282.99
2018-11-14T16:18:16.095Z,102286.95
2018-11-14T16:20:45.650Z,102289.26
2018-11-14T16:23:15.211Z,102299.97
2018-11-14T16:25:44.465Z,102297.84
2018-11-14T16:28:13.753Z,102297.55
2018-11-14T16:30:43.225Z,102293.67
2018-11-14T16:33:12.684Z,102298.22
2018-11-14T16:35:41.966Z,102293.48
2018-11-14T16:38:11.310Z,102292.85
2018-11-14T16:40:40.843Z,102297.85
2018-11-14T16:43:10.365Z,102299.77
2018-11-14T16:45:39.499Z,102308.83
2018-11-14T16:48:08.778Z,102310.78
2018-11-14T16:50:38.335Z,102316.75
2018-11-14T16:53:07.614Z,102320.12
2018-11-14T16:55:37.759Z,102313.77
2018-11-14T16:58:06.738Z,102309.00
2018-11-14T17:00:36.015Z,102309.14
2018-11-14T17:03:04.955Z,102317.78
2018-11-14T17:05:34.975Z,102315.94
2018-11-14T17:08:04.736Z,102319.09
2018-11-14T17:10:34.315Z,102318.23
2018-11-14T17:13:03.595Z,102316.66
2018-11-14T17:15:32.862Z,102318.92
2018-11-14T17:18:02.426Z,102325.24
2018-11-14T17:20:31.369Z,102318.84
2018-11-14T17:23:00.645Z,102317.45
2018-11-14T17:25:29.980Z,102326.92
2018-11-14T17:27:59.429Z,102324.37
2018-11-14T17:30:28.717Z,102329.45
2018-11-14T17:32:58.349Z,102327.56
2018-11-14T17:35:27.755Z,102331.16
2018-11-14T17:37:58.006Z,102330.86
2018-11-14T17:40:27.222Z,102340.64
2018-11-14T17:42:56.605Z,102333.65
2018-11-14T17:45:25.898Z,102333.86
2018-11-14T17:47:55.452Z,102338.55
2018-11-14T17:50:24.518Z,102335.97
2018-11-14T17:52:53.555Z,102335.63
2018-11-14T17:55:22.896Z,102338.81
2018-11-14T17:57:52.602Z,102338.50
2018-11-14T18:00:22.862Z,102337.95
2018-11-14T18:02:52.185Z,102340.42
2018-11-14T18:05:22.602Z,102341.38
2018-11-14T18:07:51.657Z,102343.81
2018-11-14T18:10:20.603Z,102342.64
2018-11-14T18:12:50.046Z,102349.21
2018-11-14T18:15:19.950Z,102348.95
2018-11-14T18:17:49.502Z,102345.95
2018-11-14T18:20:18.538Z,102336.67
2018-11-14T18:22:48.290Z,102333.67
2018-11-14T18:25:17.312Z,102327.95
2018-11-14T18:27:46.591Z,102331.59
2018-11-14T18:30:15.303Z,102335.88
2018-11-14T18:32:44.817Z,102337.63
2018-11-14T18:35:14.416Z,102334.45
2018-11-14T18:37:43.364Z,102333.83
2018-11-14T18:40:12.699Z,102339.49
2018-11-14T18:42:41.732Z,102341.16
2018-11-14T18:45:10.677Z,102342.32
2018-11-14T18:47:39.996Z,102340.75
2018-11-14T18:50:09.022Z,102349.50
2018-11-14T18:52:38.622Z,102355.11
2018-11-14T18:55:07.556Z,102344.66
2018-11-14T18:57:37.121Z,102339.44
2018-11-14T19:00:07.011Z,102342.27
2018-11-14T19:02:37.965Z,102331.23
2018-11-14T19:05:07.466Z,102328.35
2018-11-14T19:07:36.881Z,102332.05
2018-11-14T19:10:05.582Z,102340.91
2018-11-14T19:12:35.079Z,102338.98
2018-11-14T19:15:04.083Z,102344.48
2018-11-14T19:17:33.773Z,102344.16
2018-11-14T19:20:03.450Z,102342.30
2018-11-14T19:22:33.069Z,102342.52
2018-11-14T19:25:02.403Z,102349.55
2018-11-14T19:27:31.971Z,102350.98
2018-11-14T19:30:01.809Z,102350.70
2018-11-14T19:32:30.791Z,102353.34
2018-11-14T19:35:00.198Z,102351.44
2018-11-14T19:37:29.991Z,102345.52
2018-11-14T19:40:00.178Z,102342.78
2018-11-14T19:42:29.779Z,102340.47
2018-11-14T19:44:59.269Z,102341.66
2018-11-14T19:47:28.880Z,102336.42
2018-11-14T19:49:58.171Z,102336.91
2018-11-14T19:52:27.744Z,102342.89
2018-11-14T19:54:57.031Z,102335.70
2018-11-14T19:57:26.583Z,102333.09
2018-11-14T19:59:56.038Z,102332.02
2018-11-14T20:02:25.435Z,102334.35
2018-11-14T20:05:02.482Z,102336.18
2018-11-14T20:07:33.237Z,102332.55
2018-11-14T20:10:02.794Z,102331.74
2018-11-14T20:12:32.120Z,102328.73
2018-11-14T20:15:01.713Z,102318.72
2018-11-14T20:17:31.127Z,102334.23
2018-11-14T20:20:00.705Z,102325.23
2018-11-14T20:22:30.835Z,102333.66
2018-11-14T20:25:00.091Z,102327.59
2018-11-14T20:27:29.399Z,102313.35
2018-11-14T20:29:59.037Z,102313.91
2018-11-14T20:32:28.316Z,102315.26
2018-11-14T20:34:57.874Z,102313.02
2018-11-14T20:37:27.293Z,102317.98
2018-11-14T20:39:56.915Z,102321.23
2018-11-14T20:42:26.169Z,102319.69
2018-11-14T20:44:55.469Z,102312.23
2018-11-14T20:47:25.026Z,102314.64
2018-11-14T20:49:54.993Z,102311.63
2018-11-14T20:52:24.287Z,102309.80
2018-11-14T20:54:53.881Z,102310.28
2018-11-14T20:57:23.330Z,102301.75
2018-11-14T20:59:52.909Z,102301.30
2018-11-14T21:02:23.360Z,102304.99
2018-11-14T21:04:52.997Z,102305.40
2018-11-14T21:07:23.351Z,102299.82
2018-11-14T21:09:52.747Z,102300.95
2018-11-14T21:12:23.362Z,102293.55
2018-11-14T21:14:53.954Z,102294.64
2018-11-14T21:17:23.390Z,102288.79
2018-11-14T21:19:52.954Z,102288.00
2018-11-14T21:22:23.314Z,102283.69
2018-11-14T21:24:52.888Z,102290.48
2018-11-14T21:27:23.390Z,102293.69
2018-11-14T21:29:52.670Z,102297.05
2018-11-14T21:32:23.360Z,102294.27
2018-11-14T21:34:52.934Z,102302.17
2018-11-14T21:37:23.466Z,102299.98
2018-11-14T21:40:04.746Z,102304.53
2018-11-14T21:42:44.258Z,102302.66
2018-11-14T21:45:13.531Z,102298.56
2018-11-14T21:47:42.890Z,102292.71
2018-11-14T21:50:12.400Z,102295.80
2018-11-14T21:52:42.059Z,102290.03
2018-11-14T21:55:10.756Z,102292.34
2018-11-14T21:57:39.789Z,102295.95
2018-11-14T22:00:09.038Z,102300.50
2018-11-14T22:02:38.403Z,102300.77
2018-11-14T22:05:07.634Z,102306.31
2018-11-14T22:07:36.976Z,102303.34
2018-11-14T22:10:05.686Z,102304.87
2018-11-14T22:12:35.251Z,102296.90
2018-11-14T22:15:04.192Z,102299.50
2018-11-14T22:17:33.411Z,102295.48
2018-11-14T22:20:02.658Z,102298.57
2018-11-14T22:22:32.229Z,102296.78
2018-11-14T22:25:01.495Z,102301.73
2018-11-14T22:27:31.682Z,102298.23
2018-11-14T22:30:01.806Z,102292.98
2018-11-14T22:32:31.373Z,102295.00
2018-11-14T22:35:00.805Z,102302.63
2018-11-14T22:37:30.741Z,102300.47
2018-11-14T22:40:00.299Z,102297.94
2018-11-14T22:42:30.148Z,102290.86
2018-11-14T22:44:59.482Z,102285.61
2018-11-14T22:47:28.754Z,102284.86
2018-11-14T22:49:58.374Z,102288.55
2018-11-14T22:52:27.698Z,102283.64
2018-11-14T22:54:57.266Z,102290.34
2018-11-14T22:57:26.842Z,102279.69
2018-11-14T22:59:56.591Z,102284.30
2018-11-14T23:02:25.865Z,102288.77
2018-11-14T23:04:55.470Z,102291.11
2018-11-14T23:07:24.774Z,102287.23
2018-11-14T23:09:54.401Z,102293.94
2018-11-14T23:12:23.989Z,102288.95
2018-11-14T23:14:53.594Z,102284.48
2018-11-14T23:17:23.902Z,102284.07
2018-11-14T23:19:53.778Z,102278.38
2018-11-14T23:22:23.922Z,102279.82
2018-11-14T23:24:53.786Z,102269.63
2018-11-14T23:27:23.575Z,102284.50
2018-11-14T23:29:52.599Z,102282.00
2018-11-14T23:32:21.882Z,102283.03
2018-11-14T23:34:51.208Z,102285.55
2018-11-14T23:37:20.910Z,102278.20
2018-11-14T23:39:51.034Z,102274.77
2018-11-14T23:42:20.590Z,102277.25
2018-11-14T23:44:49.858Z,102272.07
2018-11-14T23:47:19.425Z,102268.50
2018-11-14T23:49:48.694Z,102265.55
2018-11-14T23:52:17.978Z,102262.45
2018-11-14T23:54:47.502Z,102263.39
2018-11-14T23:57:16.772Z,102260.81
2018-11-14T23:59:46.251Z,102260.05
